createdAt,value
2022-08-07T00:00:24.568Z,102460.03
2022-08-07T00:02:51.092Z,102453.88
2022-08-07T00:05:20.434Z,102461.41
2022-08-07T00:07:47.021Z,102455.94
2022-08-07T00:10:27.108Z,102460.38
2022-08-07T00:13:00.252Z,102456.44
2022-08-07T00:15:38.470Z,102457.28
2022-08-07T00:18:19.429Z,102458.34
2022-08-07T00:20:47.716Z,102455.94
2022-08-07T00:23:14.921Z,102456.63
2022-08-07T00:25:51.801Z,102460.38
2022-08-07T00:28:25.863Z,102465.00
2022-08-07T00:31:00.892Z,102453.38
2022-08-07T00:33:32.839Z,102455.28
2022-08-07T00:36:00.211Z,102457.81
2022-08-07T00:38:31.557Z,102456.78
2022-08-07T00:40:58.684Z,102456.63
2022-08-07T00:43:59.538Z,102456.78
2022-08-07T00:46:12.654Z,102457.47
2022-08-07T00:48:42.265Z,102451.28
2022-08-07T00:51:09.683Z,102458.53
2022-08-07T00:53:39.137Z,102453.88
2022-08-07T00:56:17.192Z,102451.28
2022-08-07T00:58:46.812Z,102448.56
2022-08-07T01:01:14.433Z,102454.91
2022-08-07T01:03:57.020Z,102454.03
2022-08-07T01:06:28.710Z,102451.47
2022-08-07T01:08:58.342Z,102449.59
2022-08-07T01:12:27.708Z,102449.78
2022-08-07T01:14:15.530Z,102458.00
2022-08-07T01:16:47.184Z,102441.56
2022-08-07T01:19:19.037Z,102447.03
2022-08-07T01:21:46.708Z,102448.75
2022-08-07T01:24:14.079Z,102447.19
2022-08-07T01:26:45.302Z,102441.72
2022-08-07T01:29:18.328Z,102453.53
2022-08-07T01:31:48.262Z,102453.72
2022-08-07T01:34:15.232Z,102456.28
2022-08-07T01:36:41.790Z,102455.59
2022-08-07T01:39:10.937Z,102450.13
2022-08-07T01:41:38.985Z,102447.56
2022-08-07T01:44:07.532Z,102453.72
2022-08-07T01:46:34.453Z,102444.97
2022-08-07T01:49:02.248Z,102442.25
2022-08-07T01:52:03.970Z,102443.09
2022-08-07T01:54:21.986Z,102444.31
2022-08-07T01:57:08.437Z,102454.25
2022-08-07T01:59:55.392Z,102454.25
2022-08-07T02:02:32.882Z,102458.03
2022-08-07T02:05:47.838Z,102454.56
2022-08-07T02:08:11.102Z,102458.16
2022-08-07T02:10:42.180Z,102459.94
2022-08-07T02:13:09.548Z,102468.16
2022-08-07T02:15:37.608Z,102461.75
2022-08-07T02:18:04.575Z,102457.31
2022-08-07T02:20:33.442Z,102459.19
2022-08-07T02:23:02.686Z,102456.44
2022-08-07T02:26:30.888Z,102457.50
2022-08-07T02:28:24.403Z,102465.72
2022-08-07T02:30:52.866Z,102458.69
2022-08-07T02:33:20.102Z,102462.28
2022-08-07T02:36:30.136Z,102455.78
2022-08-07T02:38:36.943Z,102458.69
2022-08-07T02:41:04.314Z,102456.97
2022-08-07T02:43:31.232Z,102453.19
2022-08-07T02:46:02.005Z,102453.38
2022-08-07T02:48:29.941Z,102453.56
2022-08-07T02:50:57.410Z,102447.38
2022-08-07T02:53:31.300Z,102451.84
2022-08-07T02:56:07.294Z,102452.88
2022-08-07T02:58:47.002Z,102449.28
2022-08-07T03:01:19.033Z,102450.31
2022-08-07T03:04:03.507Z,102448.56
2022-08-07T03:06:34.693Z,102460.59
2022-08-07T03:09:02.389Z,102451.50
2022-08-07T03:11:29.629Z,102448.94
2022-08-07T03:14:01.909Z,102450.66
2022-08-07T03:16:30.507Z,102448.94
2022-08-07T03:18:58.215Z,102448.09
2022-08-07T03:21:25.302Z,102445.34
2022-08-07T03:24:17.943Z,102448.09
2022-08-07T03:26:50.915Z,102445.50
2022-08-07T03:29:27.595Z,102449.09
2022-08-07T03:31:55.324Z,102444.47
2022-08-07T03:34:22.979Z,102449.09
2022-08-07T03:36:54.095Z,102457.34
2022-08-07T03:39:58.882Z,102454.59
2022-08-07T03:42:09.047Z,102459.41
2022-08-07T03:44:36.457Z,102458.56
2022-08-07T03:47:13.802Z,102462.16
2022-08-07T03:49:48.062Z,102453.94
2022-08-07T03:52:22.721Z,102461.47
2022-08-07T03:54:54.827Z,102463.34
2022-08-07T03:58:08.819Z,102461.63
2022-08-07T04:00:12.408Z,102462.69
2022-08-07T04:02:43.152Z,102459.94
2022-08-07T04:05:14.134Z,102459.94
2022-08-07T04:07:45.426Z,102467.31
2022-08-07T04:10:15.758Z,102462.69
2022-08-07T04:12:47.181Z,102472.78
2022-08-07T04:15:15.004Z,102466.63
2022-08-07T04:18:31.003Z,102463.03
2022-08-07T04:20:29.405Z,102461.13
2022-08-07T04:23:01.800Z,102465.75
2022-08-07T04:25:29.192Z,102469.69
2022-08-07T04:27:59.121Z,102478.97
2022-08-07T04:30:39.498Z,102469.69
2022-08-07T04:33:11.407Z,102467.66
2022-08-07T04:35:40.737Z,102471.91
2022-08-07T04:38:13.248Z,102477.41
2022-08-07T04:40:51.378Z,102469.16
2022-08-07T04:43:20.902Z,102476.41
2022-08-07T04:46:06.376Z,102471.75
2022-08-07T04:48:38.801Z,102478.94
2022-08-07T04:51:05.211Z,102472.63
2022-08-07T04:54:01.114Z,102472.44
2022-08-07T04:58:11.093Z,102468.69
2022-08-07T05:00:09.919Z,102471.41
2022-08-07T05:02:11.330Z,102475.00
2022-08-07T05:04:58.738Z,102478.59
2022-08-07T05:07:36.547Z,102473.28
2022-08-07T05:10:11.751Z,102478.75
2022-08-07T05:12:52.787Z,102480.50
2022-08-07T05:15:24.418Z,102480.50
2022-08-07T05:17:57.698Z,102478.75
2022-08-07T05:20:26.970Z,102477.75
2022-08-07T05:22:56.699Z,102474.81
2022-08-07T05:26:09.907Z,102478.59
2022-08-07T05:28:21.274Z,102480.13
2022-08-07T05:30:52.224Z,102473.78
2022-08-07T05:33:21.339Z,102472.59
2022-08-07T05:35:49.118Z,102479.63
2022-08-07T05:39:01.105Z,102478.59
2022-08-07T05:41:11.928Z,102487.34
2022-08-07T05:44:01.553Z,102480.81
2022-08-07T05:46:29.534Z,102487.81
2022-08-07T05:48:59.520Z,102486.81
2022-08-07T05:51:26.308Z,102491.94
2022-08-07T05:54:13.913Z,102495.22
2022-08-07T05:56:46.687Z,102497.09
2022-08-07T05:59:18.366Z,102494.88
2022-08-07T06:01:46.366Z,102487.34
2022-08-07T06:04:15.106Z,102488.00
2022-08-07T06:06:46.442Z,102480.63
2022-08-07T06:09:15.363Z,102487.81
2022-08-07T06:11:42.194Z,102491.25
2022-08-07T06:14:11.921Z,102485.59
2022-08-07T06:16:41.003Z,102490.41
2022-08-07T06:19:08.114Z,102480.28
2022-08-07T06:22:15.331Z,102485.59
2022-08-07T06:24:45.794Z,102489.88
2022-08-07T06:27:22.816Z,102506.00
2022-08-07T06:30:24.247Z,102492.44
2022-08-07T06:32:55.543Z,102495.03
2022-08-07T06:35:22.003Z,102498.63
2022-08-07T06:37:49.101Z,102494.13
2022-08-07T06:40:21.293Z,102501.53
2022-08-07T06:42:49.071Z,102497.78
2022-08-07T06:45:18.315Z,102499.13
2022-08-07T06:47:57.011Z,102497.06
2022-08-07T06:50:24.809Z,102492.59
2022-08-07T06:52:53.537Z,102494.31
2022-08-07T06:55:54.120Z,102497.06
2022-08-07T06:58:16.566Z,102493.97
2022-08-07T07:00:44.236Z,102496.50
2022-08-07T07:03:14.434Z,102494.47
2022-08-07T07:06:03.450Z,102504.41
2022-08-07T07:08:33.188Z,102498.72
2022-08-07T07:11:00.769Z,102490.34
2022-08-07T07:13:56.601Z,102495.81
2022-08-07T07:16:27.556Z,102494.59
2022-08-07T07:18:59.726Z,102492.69
2022-08-07T07:21:40.285Z,102490.16
2022-08-07T07:24:21.847Z,102490.47
2022-08-07T07:26:51.883Z,102485.81
2022-08-07T07:29:28.475Z,102485.81
2022-08-07T07:32:07.912Z,102479.13
2022-08-07T07:34:36.318Z,102475.34
2022-08-07T07:37:22.116Z,102474.16
2022-08-07T07:39:56.080Z,102469.50
2022-08-07T07:42:32.570Z,102470.16
2022-08-07T07:45:01.560Z,102462.81
2022-08-07T07:47:29.463Z,102466.41
2022-08-07T07:50:36.105Z,102467.06
2022-08-07T07:52:46.978Z,102466.72
2022-08-07T07:55:14.393Z,102461.03
2022-08-07T07:57:52.476Z,102459.84
2022-08-07T08:00:28.829Z,102463.78
2022-08-07T08:03:04.953Z,102457.94
2022-08-07T08:05:50.771Z,102458.78
2022-08-07T08:08:35.262Z,102448.66
2022-08-07T08:11:08.372Z,102452.94
2022-08-07T08:13:53.437Z,102444.38
2022-08-07T08:16:25.126Z,102446.94
2022-08-07T08:18:54.917Z,102446.75
2022-08-07T08:21:55.775Z,102441.09
2022-08-07T08:24:48.015Z,102443.00
2022-08-07T08:27:26.482Z,102435.59
2022-08-07T08:30:07.822Z,102437.31
2022-08-07T08:32:48.439Z,102431.81
2022-08-07T08:35:20.095Z,102436.94
2022-08-07T08:38:01.604Z,102433.34
2022-08-07T08:40:36.041Z,102431.28
2022-08-07T08:43:17.650Z,102426.81
2022-08-07T08:45:59.210Z,102429.38
2022-08-07T08:48:32.520Z,102421.97
2022-08-07T08:51:14.642Z,102421.81
2022-08-07T08:53:56.525Z,102418.88
2022-08-07T08:56:27.315Z,102426.28
2022-08-07T08:58:56.374Z,102426.06
2022-08-07T09:01:40.084Z,102413.38
2022-08-07T09:04:16.329Z,102422.28
2022-08-07T09:06:56.880Z,102415.09
2022-08-07T09:09:44.590Z,102419.53
2022-08-07T09:12:31.637Z,102414.94
2022-08-07T09:16:22.439Z,102407.34
2022-08-07T09:18:22.503Z,102407.53
2022-08-07T09:21:13.567Z,102402.88
2022-08-07T09:24:31.268Z,102408.38
2022-08-07T09:26:57.009Z,102406.69
2022-08-07T09:30:06.114Z,102406.69
2022-08-07T09:32:31.926Z,102407.53
2022-08-07T09:35:04.833Z,102401.34
2022-08-07T09:38:04.419Z,102400.50
2022-08-07T09:40:50.205Z,102400.50
2022-08-07T09:44:03.507Z,102385.06
2022-08-07T09:47:50.444Z,102392.44
2022-08-07T09:50:02.859Z,102385.72
2022-08-07T09:52:33.893Z,102386.56
2022-08-07T09:54:59.805Z,102377.31
2022-08-07T09:57:38.617Z,102377.97
2022-08-07T10:00:15.042Z,102374.19
2022-08-07T10:02:55.652Z,102372.31
2022-08-07T10:05:59.101Z,102368.88
2022-08-07T10:08:46.901Z,102368.22
2022-08-07T10:12:01.427Z,102364.78
2022-08-07T10:14:31.147Z,102368.38
2022-08-07T10:17:16.385Z,102358.63
2022-08-07T10:19:49.034Z,102360.50
2022-08-07T10:22:24.972Z,102345.06
2022-08-07T10:25:10.869Z,102347.16
2022-08-07T10:27:46.728Z,102355.41
2022-08-07T10:30:27.374Z,102345.25
2022-08-07T10:33:03.002Z,102348.38
2022-08-07T10:35:56.373Z,102336.53
2022-08-07T10:38:48.259Z,102347.50
2022-08-07T10:41:46.461Z,102336.72
2022-08-07T10:44:10.858Z,102336.72
2022-08-07T10:47:06.143Z,102325.75
2022-08-07T10:49:49.854Z,102325.06
2022-08-07T10:52:51.218Z,102332.25
2022-08-07T10:55:27.125Z,102322.31
2022-08-07T10:58:13.962Z,102331.41
2022-08-07T11:00:50.399Z,102310.47
2022-08-07T11:03:37.657Z,102310.47
2022-08-07T11:06:18.507Z,102310.47
2022-08-07T11:09:00.571Z,102304.78
2022-08-07T11:11:27.242Z,102305.81
2022-08-07T11:14:45.197Z,102306.69
2022-08-07T11:17:01.108Z,102300.16
2022-08-07T11:19:35.034Z,102298.44
2022-08-07T11:22:19.469Z,102291.03
2022-08-07T11:25:06.854Z,102284.06
2022-08-07T11:28:03.013Z,102287.66
2022-08-07T11:30:41.841Z,102278.56
2022-08-07T11:33:16.346Z,102276.66
2022-08-07T11:35:58.923Z,102271.16
2022-08-07T11:38:30.593Z,102273.56
2022-08-07T11:40:59.469Z,102263.41
2022-08-07T11:43:41.626Z,102274.03
2022-08-07T11:46:26.661Z,102270.06
2022-08-07T11:49:50.658Z,102263.91
2022-08-07T11:52:07.608Z,102261.16
2022-08-07T11:54:46.498Z,102259.63
2022-08-07T11:58:00.253Z,102255.19
2022-08-07T12:00:36.967Z,102259.63
2022-08-07T12:03:41.348Z,102253.28
2022-08-07T12:06:37.013Z,102251.59
2022-08-07T12:09:01.829Z,102255.34
2022-08-07T12:11:56.113Z,102244.56
2022-08-07T12:14:29.802Z,102243.50
2022-08-07T12:17:20.276Z,102247.97
2022-08-07T12:20:08.832Z,102240.59
2022-08-07T12:22:47.288Z,102234.25
2022-08-07T12:26:22.419Z,102241.44
2022-08-07T12:28:49.644Z,102234.25
2022-08-07T12:31:53.208Z,102242.50
2022-08-07T12:34:25.981Z,102226.00
2022-08-07T12:36:53.914Z,102228.75
2022-08-07T12:39:42.332Z,102232.53
2022-08-07T12:42:13.357Z,102228.94
2022-08-07T12:44:45.205Z,102222.59
2022-08-07T12:47:32.101Z,102218.13
2022-08-07T12:50:04.881Z,102223.44
2022-08-07T12:52:59.383Z,102222.59
2022-08-07T12:55:40.850Z,102213.50
2022-08-07T12:58:09.879Z,102213.50
2022-08-07T13:00:58.332Z,102207.81
2022-08-07T13:03:59.178Z,102204.41
2022-08-07T13:07:00.659Z,102197.22
2022-08-07T13:10:19.500Z,102191.72
2022-08-07T13:12:38.998Z,102199.06
2022-08-07T13:15:14.328Z,102199.97
2022-08-07T13:17:59.453Z,102193.59
2022-08-07T13:20:33.534Z,102191.03
2022-08-07T13:24:01.981Z,102193.59
2022-08-07T13:26:07.389Z,102187.25
2022-08-07T13:28:45.475Z,102180.72
2022-08-07T13:31:22.811Z,102183.66
2022-08-07T13:34:30.446Z,102176.44
2022-08-07T13:36:49.009Z,102172.66
2022-08-07T13:39:48.922Z,102175.41
2022-08-07T13:42:21.659Z,102173.50
2022-08-07T13:45:11.810Z,102165.47
2022-08-07T13:48:06.149Z,102154.50
2022-08-07T13:50:35.520Z,102150.00
2022-08-07T13:53:19.445Z,102151.03
2022-08-07T13:55:55.113Z,102146.59
2022-08-07T13:58:42.782Z,102150.38
2022-08-07T14:01:24.476Z,102148.69
2022-08-07T14:04:07.658Z,102145.25
2022-08-07T14:06:38.956Z,102148.84
2022-08-07T14:09:06.477Z,102140.81
2022-08-07T14:11:53.545Z,102136.38
2022-08-07T14:14:50.442Z,102137.22
2022-08-07T14:17:51.510Z,102137.41
2022-08-07T14:20:42.841Z,102140.16
2022-08-07T14:23:31.735Z,102132.09
2022-08-07T14:26:11.256Z,102138.63
2022-08-07T14:29:04.309Z,102132.44
2022-08-07T14:31:42.996Z,102126.97
2022-08-07T14:34:29.272Z,102126.09
2022-08-07T14:36:58.085Z,102117.03
2022-08-07T14:40:16.616Z,102126.97
2022-08-07T14:45:21.393Z,102119.59
2022-08-07T14:47:51.317Z,102124.22
2022-08-07T14:50:26.310Z,102117.88
2022-08-07T14:52:54.309Z,102117.03
2022-08-07T14:55:21.904Z,102112.22
2022-08-07T14:57:57.838Z,102110.31
2022-08-07T15:00:30.251Z,102103.13
2022-08-07T15:02:59.004Z,102103.97
2022-08-07T15:05:26.814Z,102099.97
2022-08-07T15:07:54.218Z,102106.53
2022-08-07T15:10:26.006Z,102102.94
2022-08-07T15:12:58.204Z,102103.56
2022-08-07T15:15:29.733Z,102106.31
2022-08-07T15:18:14.448Z,102109.06
2022-08-07T15:20:56.168Z,102105.47
2022-08-07T15:25:14.054Z,102101.88
2022-08-07T15:26:22.322Z,102101.03
2022-08-07T15:28:59.431Z,102101.03
2022-08-07T15:32:00.886Z,102097.63
2022-08-07T15:34:18.276Z,102095.75
2022-08-07T15:37:04.605Z,102091.25
2022-08-07T15:39:56.937Z,102095.91
2022-08-07T15:42:47.830Z,102089.56
2022-08-07T15:45:21.918Z,102086.81
2022-08-07T15:51:09.374Z,102084.28
2022-08-07T15:53:52.706Z,102078.78
2022-08-07T15:56:24.095Z,102079.84
2022-08-07T15:58:57.926Z,102074.34
2022-08-07T16:01:38.700Z,102070.72
2022-08-07T16:04:14.635Z,102078.94
2022-08-07T16:06:51.008Z,102070.06
2022-08-07T16:09:22.525Z,102069.03
2022-08-07T16:11:52.451Z,102075.38
2022-08-07T16:14:31.134Z,102070.91
2022-08-07T16:18:01.550Z,102062.69
2022-08-07T16:20:33.675Z,102071.75
2022-08-07T16:23:54.000Z,102075.56
2022-08-07T16:26:10.209Z,102073.88
2022-08-07T16:29:18.415Z,102072.81
2022-08-07T16:31:50.935Z,102073.66
2022-08-07T16:34:48.637Z,102071.13
2022-08-07T16:38:05.857Z,102074.72
2022-08-07T16:40:06.059Z,102078.50
2022-08-07T16:42:52.297Z,102067.53
2022-08-07T16:46:33.694Z,102070.28
2022-08-07T16:49:10.427Z,102072.13
2022-08-07T16:52:50.975Z,102068.53
2022-08-07T16:55:03.196Z,102067.69
2022-08-07T16:58:02.827Z,102069.59
2022-08-07T17:00:30.121Z,102072.34
2022-08-07T17:03:17.829Z,102062.19
2022-08-07T17:06:19.247Z,102070.44
2022-08-07T17:09:14.299Z,102067.53
2022-08-07T17:12:34.491Z,102064.78
2022-08-07T17:15:03.584Z,102059.28
2022-08-07T17:17:46.506Z,102069.38
2022-08-07T17:20:30.930Z,102065.78
2022-08-07T17:23:02.815Z,102064.78
2022-08-07T17:25:51.548Z,102071.28
2022-08-07T17:28:23.862Z,102072.13
2022-08-07T17:30:58.648Z,102067.53
2022-08-07T17:34:09.953Z,102073.00
2022-08-07T17:36:20.438Z,102071.28
2022-08-07T17:38:56.649Z,102076.59
2022-08-07T17:42:01.720Z,102080.19
2022-08-07T17:44:33.991Z,102077.81
2022-08-07T17:47:41.811Z,102083.31
2022-08-07T17:50:20.561Z,102075.06
2022-08-07T17:52:55.217Z,102079.72
2022-08-07T17:55:55.739Z,102078.66
2022-08-07T17:58:31.106Z,102083.31
2022-08-07T18:00:59.414Z,102076.59
2022-08-07T18:03:28.826Z,102075.94
2022-08-07T18:06:16.700Z,102075.94
2022-08-07T18:09:06.116Z,102074.88
2022-08-07T18:12:16.684Z,102076.78
2022-08-07T18:14:28.099Z,102074.03
2022-08-07T18:16:59.049Z,102069.59
2022-08-07T18:21:10.316Z,102070.44
2022-08-07T18:22:26.366Z,102065.78
2022-08-07T18:25:01.736Z,102066.00
2022-08-07T18:28:01.173Z,102068.75
2022-08-07T18:30:37.889Z,102073.38
2022-08-07T18:33:23.170Z,102078.03
2022-08-07T18:36:16.782Z,102077.19
2022-08-07T18:38:57.382Z,102084.53
2022-08-07T18:41:44.892Z,102081.78
2022-08-07T18:44:15.777Z,102082.66
2022-08-07T18:47:01.717Z,102089.16
2022-08-07T18:50:31.321Z,102093.81
2022-08-07T18:52:53.776Z,102089.16
2022-08-07T18:55:43.096Z,102092.13
2022-08-07T18:58:23.657Z,102085.66
2022-08-07T19:02:19.301Z,102096.47
2022-08-07T19:04:35.826Z,102097.47
2022-08-07T19:07:34.921Z,102097.69
2022-08-07T19:10:09.978Z,102109.72
2022-08-07T19:12:48.688Z,102103.53
2022-08-07T19:16:02.479Z,102100.78
2022-08-07T19:18:34.926Z,102097.19
2022-08-07T19:21:44.018Z,102107.13
2022-08-07T19:24:30.537Z,102106.97
2022-08-07T19:28:57.462Z,102111.41
2022-08-07T19:30:58.000Z,102113.31
2022-08-07T19:32:45.579Z,102116.91
2022-08-07T19:35:16.660Z,102117.75
2022-08-07T19:37:56.392Z,102116.91
2022-08-07T19:40:31.151Z,102122.38
2022-08-07T19:42:59.906Z,102116.03
2022-08-07T19:46:01.153Z,102129.56
2022-08-07T19:48:24.131Z,102127.50
2022-08-07T19:50:53.294Z,102124.75
2022-08-07T19:54:31.101Z,102127.69
2022-08-07T19:56:12.149Z,102130.41
2022-08-07T19:58:50.429Z,102132.31
2022-08-07T20:01:21.313Z,102121.34
2022-08-07T20:03:49.091Z,102121.34
2022-08-07T20:06:28.536Z,102135.75
2022-08-07T20:09:01.784Z,102136.59
2022-08-07T20:12:01.658Z,102141.41
2022-08-07T20:14:23.217Z,102138.28
2022-08-07T20:17:01.393Z,102144.63
2022-08-07T20:19:47.993Z,102141.88
2022-08-07T20:22:29.292Z,102150.31
2022-08-07T20:25:06.239Z,102150.13
2022-08-07T20:27:48.149Z,102153.91
2022-08-07T20:30:22.559Z,102149.28
2022-08-07T20:32:50.327Z,102145.69
2022-08-07T20:35:26.066Z,102147.56
2022-08-07T20:37:59.262Z,102160.44
2022-08-07T20:40:32.613Z,102161.28
2022-08-07T20:43:09.424Z,102157.69
2022-08-07T20:46:28.566Z,102169.53
2022-08-07T20:48:30.359Z,102165.94
2022-08-07T20:51:04.763Z,102164.88
2022-08-07T20:54:03.880Z,102165.94
2022-08-07T20:56:26.080Z,102165.09
2022-08-07T20:58:53.599Z,102156.84
2022-08-07T21:01:24.057Z,102161.28
2022-08-07T21:04:19.674Z,102159.59
2022-08-07T21:06:46.635Z,102158.75
2022-08-07T21:09:24.660Z,102156.00
2022-08-07T21:12:01.317Z,102166.78
2022-08-07T21:14:33.986Z,102171.44
2022-08-07T21:18:01.145Z,102170.56
2022-08-07T21:20:00.826Z,102173.47
2022-08-07T21:22:34.283Z,102175.56
2022-08-07T21:25:12.066Z,102170.09
2022-08-07T21:27:54.655Z,102177.28
2022-08-07T21:30:45.492Z,102171.13
2022-08-07T21:33:14.272Z,102171.13
2022-08-07T21:36:06.547Z,102167.50
2022-08-07T21:38:38.203Z,102175.75
2022-08-07T21:41:24.626Z,102168.19
2022-08-07T21:44:07.030Z,102170.25
2022-08-07T21:46:41.623Z,102168.38
2022-08-07T21:50:01.853Z,102164.75
2022-08-07T21:52:44.877Z,102158.91
2022-08-07T21:55:19.249Z,102162.69
2022-08-07T21:58:29.912Z,102164.59
2022-08-07T22:01:00.225Z,102170.75
2022-08-07T22:03:37.851Z,102172.16
2022-08-07T22:06:07.853Z,102169.59
2022-08-07T22:09:02.779Z,102174.88
2022-08-07T22:12:04.890Z,102172.34
2022-08-07T22:14:23.718Z,102167.91
2022-08-07T22:17:03.955Z,102167.06
2022-08-07T22:19:41.658Z,102171.28
2022-08-07T22:22:21.328Z,102173.19
2022-08-07T22:25:11.017Z,102173.19
2022-08-07T22:28:19.993Z,102181.44
2022-08-07T22:31:04.926Z,102185.03
2022-08-07T22:33:57.181Z,102187.28
2022-08-07T22:36:35.505Z,102172.75
2022-08-07T22:39:08.474Z,102179.66
2022-08-07T22:42:03.736Z,102184.97
2022-08-07T22:44:32.777Z,102187.34
2022-08-07T22:47:04.520Z,102182.22
2022-08-07T22:49:56.406Z,102186.53
2022-08-07T22:52:37.643Z,102187.78
2022-08-07T22:55:30.149Z,102187.28
2022-08-07T22:58:15.653Z,102190.53
2022-08-07T23:00:51.422Z,102192.88
2022-08-07T23:03:20.884Z,102195.25
2022-08-07T23:06:14.752Z,102193.22
2022-08-07T23:08:55.951Z,102194.06
2022-08-07T23:11:28.213Z,102187.88
2022-08-07T23:14:30.451Z,102193.56
2022-08-07T23:16:58.311Z,102191.47
2022-08-07T23:19:59.823Z,102196.81
2022-08-07T23:22:35.210Z,102200.41
2022-08-07T23:25:07.479Z,102201.25
2022-08-07T23:28:22.618Z,102198.50
2022-08-07T23:30:46.691Z,102200.19
2022-08-07T23:34:35.915Z,102194.72
2022-08-07T23:36:33.242Z,102191.13
2022-08-07T23:39:21.993Z,102199.34
2022-08-07T23:42:05.107Z,102194.06
2022-08-07T23:44:51.354Z,102192.16
2022-08-07T23:47:22.737Z,102199.53
2022-08-07T23:49:52.737Z,102197.66
2022-08-07T23:53:02.037Z,102197.66
2022-08-07T23:55:52.026Z,102197.66
2022-08-07T23:58:18.453Z,102194.22
